Terminal Aerodrome Forecast
Issued by NWS

Home | Current Version | Previous Version | Text Only | Print | Product List | Glossary On
Versions: 1 2 3 4 5 6 7 8 9 10 11 12 13 14 15 16 17 18 19 20 21
342
FTUS43 KLSX 040214 AAA
TAFUIN
TAF AMD
KUIN 040214Z 0402/0424 23007KT P6SM BKN080
     FM040600 24012KT P6SM VCSH BKN060
     FM040900 29012G18KT P6SM BKN060
     FM041400 34016G25KT P6SM SKC=

USA.gov is the U.S. government's official web portal to all federal, state and local government web resources and services.